Sellersburg, Indiana
Current Conditions -  °F | °C
As of 6:53 PM on Friday 19 Dec 2014 (Local Time) from KLOU Reporting Station
Clear Clear  
Wind Chill: 24°   Ceiling: Unl
Heat Index: 30°   Visibility: 10mi
Dew Point: 21°   Wind: 6mph
Humidity: 69%   Direction: 20°NNE
Pressure: 30.3"   Gusts: NA
Location:  38.4°N, 85.76°W
Report Text: KLOU 192353Z 02005KT 10SM CLR M01/M06 A3030 RMK AO2 SLP267 T10111061 10017 21011 51006
Loading
Personal Weather Stations






























Interactive Weather Map New forecast layout! Learn more

10-Day Weather Forecast

Advertisements
Track Severe Weather on mobile